Time;durP1;ratioP1;P1;durP2;ratioP2;P2;SDS_P1;SDS_P2;PMS_P1;PMS_P2;Temp;Humidity;BMP_temperature;BMP_pressure;BME280_temperature;BME280_humidity;BME280_pressure;Samples;Min_cycle;Max_cycle;Signal;HPM_P1;HPM_P2
2022/11/05 00:09:45;;;;;;;4.63;2.13;;;;;;;;;;21170770;28;20047;-55
2022/11/05 00:19:47;;;;;;;5.28;2.90;;;11.00;56.80;;;;;;21171026;28;20059;-55
2022/11/05 00:29:49;;;;;;;6.35;2.75;;;;;;;;;;21169335;28;20055;-57
2022/11/05 00:39:53;;;;;;;5.32;2.92;;;;;;;;;;21167542;28;20044;-57
2022/11/05 00:49:55;;;;;;;6.43;3.17;;;;;;;;;;21167296;28;20052;-54
2022/11/05 00:59:57;;;;;;;4.85;2.60;;;;;;;;;;21167479;28;20078;-55
2022/11/05 01:09:58;;;;;;;6.18;2.85;;;10.70;56.50;;;;;;21167654;28;20051;-56
2022/11/05 01:20:00;;;;;;;5.53;2.58;;;10.50;57.10;;;;;;21166606;28;20047;-58
2022/11/05 01:30:03;;;;;;;7.15;3.03;;;10.40;57.10;;;;;;21164963;28;20086;-58
2022/11/05 01:40:07;;;;;;;6.45;3.13;;;10.20;57.80;;;;;;21165322;28;20123;-58
2022/11/05 01:50:19;;;;;;;5.17;2.77;;;10.20;58.20;;;;;;21162960;28;20100;-58
2022/11/05 02:00:21;;;;;;;5.18;3.03;;;10.20;58.50;;;;;;21163784;28;20109;-57
2022/11/05 02:10:23;;;;;;;6.97;2.75;;;9.90;59.40;;;;;;21162787;28;20052;-56
2022/11/05 02:20:32;;;;;;;5.15;3.05;;;;;;;;;;21163465;28;20107;-58
2022/11/05 02:30:38;;;;;;;6.20;3.50;;;;;;;;;;21145027;28;20135;-57
2022/11/05 02:40:43;;;;;;;6.53;3.35;;;;;;;;;;21161826;28;20048;-56
2022/11/05 02:51:10;;;;;;;5.83;3.00;;;;;;;;;;21161092;28;20055;-56
2022/11/05 03:01:13;;;;;;;7.97;3.53;;;;;;;;;;21171533;28;20040;-57
2022/11/05 03:11:21;;;;;;;10.38;3.70;;;;;;;;;;21176048;28;20445;-55
2022/11/05 03:21:28;;;;;;;6.63;3.55;;;;;;;;;;21174479;28;20104;-57
2022/11/05 03:31:36;;;;;;;5.45;3.47;;;;;;;;;;21172980;28;20096;-55
2022/11/05 03:41:43;;;;;;;7.68;3.30;;;;;;;;;;21172853;28;20067;-57
2022/11/05 03:52:03;;;;;;;6.80;3.13;;;8.90;61.20;;;;;;21171673;28;20052;-56
2022/11/05 04:02:05;;;;;;;6.38;3.25;;;9.00;61.30;;;;;;21171845;28;20126;-56
2022/11/05 04:33:37;;;;;;;7.82;3.88;;;8.80;61.60;;;;;;21168804;28;20044;-58
2022/11/05 04:43:44;;;;;;;6.30;3.10;;;;;;;;;;21168936;28;20050;-57
2022/11/05 04:53:51;;;;;;;5.88;3.83;;;;;;;;;;21167752;28;20498;-59
2022/11/05 05:03:54;;;;;;;7.28;3.38;;;;;;;;;;21165969;28;20050;-56
2022/11/05 05:13:57;;;;;;;7.85;4.05;;;;;;;;;;21166887;28;20407;-59
2022/11/05 05:24:00;;;;;;;6.47;3.33;;;;;;;;;;21164586;28;20050;-57
2022/11/05 05:34:02;;;;;;;5.32;3.75;;;;;;;;;;21164924;28;20061;-59
2022/11/05 05:44:05;;;;;;;5.68;3.10;;;;;;;;;;21165313;28;20079;-57
2022/11/05 05:54:07;;;;;;;6.55;3.20;;;;;;;;;;21164557;28;20047;-58
2022/11/05 06:04:10;;;;;;;5.40;3.17;;;;;;;;;;21162890;28;20051;-56
2022/11/05 06:14:12;;;;;;;4.88;3.00;;;;;;;;;;21163023;28;20063;-57
2022/11/05 06:24:15;;;;;;;7.55;3.13;;;;;;;;;;21162746;28;20056;-60
2022/11/05 06:34:17;;;;;;;6.85;3.33;;;;;;;;;;21171491;28;20075;-58
2022/11/05 06:44:20;;;;;;;6.38;3.28;;;;;;;;;;21177489;28;20112;-58
2022/11/05 06:54:22;;;;;;;5.80;3.22;;;;;;;;;;21177216;28;20048;-59
2022/11/05 07:04:24;;;;;;;7.50;4.25;;;;;;;;;;21176427;28;20449;-59
2022/11/05 07:14:26;;;;;;;7.40;3.58;;;;;;;;;;21175383;28;20088;-57
2022/11/05 07:24:28;;;;;;;7.57;3.60;;;;;;;;;;21174262;28;20055;-57
2022/11/05 07:34:31;;;;;;;9.65;4.20;;;;;;;;;;21174244;28;20048;-59
2022/11/05 07:44:34;;;;;;;7.50;3.35;;;;;;;;;;21172425;28;20066;-60
2022/11/05 07:54:36;;;;;;;5.35;3.72;;;;;;;;;;21172459;28;20576;-58
2022/11/05 08:04:39;;;;;;;15.10;3.63;;;;;;;;;;21171124;28;20050;-56
2022/11/05 08:14:41;;;;;;;8.27;3.40;;;;;;;;;;21170275;28;20135;-57
2022/11/05 08:24:42;;;;;;;6.45;3.47;;;;;;;;;;21169381;28;20055;-58
2022/11/05 08:34:44;;;;;;;6.93;3.53;;;;;;;;;;21168185;28;20105;-57
2022/11/05 08:44:46;;;;;;;9.57;4.47;;;;;;;;;;21167919;28;20063;-56
2022/11/05 08:54:47;;;;;;;7.18;4.00;;;;;;;;;;21166102;28;20044;-57
2022/11/05 09:04:49;;;;;;;10.77;5.45;;;;;;;;;;21166085;28;20112;-56
2022/11/05 09:14:51;;;;;;;6.00;2.80;;;;;;;;;;21164885;28;20096;-57
2022/11/05 09:24:53;;;;;;;5.55;3.35;;;;;;;;;;21165397;28;20054;-55
2022/11/05 09:34:55;;;;;;;11.90;3.63;;;;;;;;;;21163240;28;20415;-57
2022/11/05 09:45:07;;;;;;;7.25;3.40;;;;;;;;;;21163393;28;20077;-56
2022/11/05 09:55:29;;;;;;;5.72;2.90;;;;;;;;;;21162043;28;20058;-56
2022/11/05 10:05:32;;;;;;;7.25;3.03;;;;;;;;;;21167463;28;20411;-59
2022/11/05 10:15:36;;;;;;;5.07;2.70;;;;;;;;;;21180745;28;20521;-57
2022/11/05 10:25:41;;;;;;;12.23;4.03;;;;;;;;;;21177930;28;20058;-57
2022/11/05 10:35:47;;;;;;;8.47;5.27;;;;;;;;;;21176870;28;20096;-57
2022/11/05 10:45:57;;;;;;;8.10;3.20;;;;;;;;;;21176278;28;20485;-57
2022/11/05 10:55:59;;;;;;;9.50;3.78;;;;;;;;;;21175747;28;20048;-58
2022/11/05 11:06:03;;;;;;;14.75;3.78;;;;;;;;;;21175699;28;20130;-58
2022/11/05 11:16:19;;;;;;;8.00;4.03;;;;;;;;;;21173229;28;20051;-59
2022/11/05 11:26:23;;;;;;;9.32;4.07;;;;;;;;;;21172916;28;20052;-57
2022/11/05 11:36:26;;;;;;;5.20;2.63;;;;;;;;;;21172481;28;20044;-58
2022/11/05 11:46:31;;;;;;;7.22;2.47;;;;;;;;;;21170643;28;20067;-57
2022/11/05 11:56:43;;;;;;;7.10;2.80;;;;;;;;;;21171866;28;20123;-56
2022/11/05 12:06:57;;;;;;;7.25;3.22;;;;;;;;;;21170761;28;20502;-56
2022/11/05 12:16:59;;;;;;;8.17;4.00;;;;;;;;;;21170356;28;20415;-56
2022/11/05 12:27:22;;;;;;;13.40;9.07;;;;;;;;;;21168214;28;20047;-56
2022/11/05 12:37:24;;;;;;;6.88;3.42;;;;;;;;;;21167101;28;20104;-57
2022/11/05 12:47:45;;;;;;;7.18;3.40;;;;;;;;;;21165765;28;20112;-58
2022/11/05 12:57:49;;;;;;;7.30;3.40;;;;;;;;;;21165886;28;20075;-56
2022/11/05 13:07:56;;;;;;;7.80;3.33;;;;;;;;;;21166544;28;20073;-60
2022/11/05 13:17:59;;;;;;;12.45;5.50;;;;;;;;;;21165983;28;20047;-60
2022/11/05 13:28:10;;;;;;;9.23;3.33;;;;;;;;;;21165807;28;20047;-57
2022/11/05 13:48:43;;;;;;;14.32;3.40;;;;;;;;;;21162664;28;20051;-58
2022/11/05 13:58:56;;;;;;;11.93;3.67;;;;;;;;;;21163028;28;20055;-59
2022/11/05 14:09:02;;;;;;;8.32;3.45;;;;;;;;;;21163100;28;20048;-56
2022/11/05 14:19:19;;;;;;;6.97;2.30;;;;;;;;;;21162039;28;20043;-57
2022/11/05 14:29:22;;;;;;;5.97;2.50;;;;;;;;;;21161286;28;20098;-57
2022/11/05 14:39:28;;;;;;;7.40;2.73;;;;;;;;;;21161770;28;20101;-57
2022/11/05 14:49:48;;;;;;;4.00;2.58;;;;;;;;;;21160190;28;20052;-57
2022/11/05 14:59:55;;;;;;;5.00;2.40;;;;;;;;;;21175836;28;20089;-57
2022/11/05 15:10:13;;;;;;;5.93;2.80;;;;;;;;;;21175013;28;20070;-58
2022/11/05 15:20:17;;;;;;;5.47;3.00;;;;;;;;;;21174836;28;20054;-57
2022/11/05 15:30:21;;;;;;;6.22;2.95;;;;;;;;;;21173759;28;20087;-57
2022/11/05 15:40:26;;;;;;;11.67;5.27;;;;;;;;;;21173670;28;20052;-58
2022/11/05 15:50:28;;;;;;;6.05;2.92;;;;;;;;;;21171971;28;20312;-57
2022/11/05 16:00:32;;;;;;;7.60;3.47;;;;;;;;;;21172254;28;20357;-57
2022/11/05 16:10:36;;;;;;;4.28;2.33;;;;;;;;;;21170603;28;20056;-59
2022/11/05 16:20:38;;;;;;;5.13;2.70;;;;;;;;;;21170691;28;20517;-60
2022/11/05 16:30:50;;;;;;;11.65;4.25;;;;;;;;;;21168822;28;20043;-58
2022/11/05 16:40:53;;;;;;;6.95;3.17;;;;;;;;;;21168880;28;20047;-60
2022/11/05 16:50:55;;;;;;;7.47;4.38;;;;;;;;;;21166933;28;20058;-58
2022/11/05 17:01:04;;;;;;;44.55;28.23;;;;;;;;;;21166886;28;20128;-61
2022/11/05 17:11:07;;;;;;;17.52;9.18;;;;;;;;;;21168293;28;20047;-56
2022/11/05 17:21:12;;;;;;;12.63;7.00;;;;;;;;;;21165132;28;20411;-57
2022/11/05 17:31:18;;;;;;;10.15;6.22;;;;;;;;;;21164273;28;20547;-59
2022/11/05 17:41:22;;;;;;;19.45;8.52;;;;;;;;;;21163859;28;20052;-59
2022/11/05 17:51:24;;;;;;;14.95;10.23;;;;;;;;;;21162540;28;20055;-56
2022/11/05 18:01:30;;;;;;;19.92;11.95;;;;;;;;;;21161978;28;20048;-57
2022/11/05 18:11:32;;;;;;;29.03;16.97;;;;;;;;;;21161960;28;20083;-58
2022/11/05 18:21:34;;;;;;;24.48;16.08;;;;;;;;;;21161433;28;20196;-59
2022/11/05 18:31:36;;;;;;;15.23;7.55;;;;;;;;;;21174393;28;20077;-58
2022/11/05 18:41:39;;;;;;;18.85;8.45;;;;;;;;;;21177111;28;20046;-56
2022/11/05 18:51:41;;;;;;;18.45;7.97;;;;;;;;;;21176490;28;20334;-57
2022/11/05 19:01:43;;;;;;;17.33;8.23;;;;;;;;;;21175313;28;20054;-57
2022/11/05 19:11:45;;;;;;;21.00;8.40;;;;;;;;;;21174781;28;20135;-60
2022/11/05 19:21:47;;;;;;;16.45;7.60;;;;;;;;;;21174076;28;20087;-61
2022/11/05 19:31:49;;;;;;;17.23;7.53;;;;;;;;;;21173031;28;20074;-61
2022/11/05 19:41:51;;;;;;;6.30;3.58;;;;;;;;;;21172418;28;20047;-60
2022/11/05 19:51:53;;;;;;;168.88;127.00;;;;;;;;;;21170703;28;20420;-57
2022/11/05 20:01:55;;;;;;;185.02;165.75;;;;;;;;;;21170576;28;20054;-59
2022/11/05 20:11:57;;;;;;;64.38;39.92;;;;;;;;;;21169799;28;20050;-59
2022/11/05 20:21:59;;;;;;;29.33;14.57;;;;;;;;;;21168704;28;20152;-59
2022/11/05 20:32:02;;;;;;;31.13;14.32;;;;;;;;;;21168265;28;20479;-59
2022/11/05 20:42:04;;;;;;;32.42;15.10;;;;;;;;;;21167313;28;20055;-57
2022/11/05 20:52:06;;;;;;;26.42;12.88;;;;;;;;;;21164743;28;20441;-60
2022/11/05 21:02:09;;;;;;;11.93;5.70;;;;;;;;;;21166010;28;20043;-57
2022/11/05 21:12:11;;;;;;;35.97;16.48;;;;;;;;;;21164848;28;20056;-57
2022/11/05 21:22:14;;;;;;;26.58;12.10;;;;;;;;;;21164379;28;20044;-59
2022/11/05 21:32:16;;;;;;;10.27;4.38;;;;;;;;;;21163893;28;20051;-57
2022/11/05 21:42:18;;;;;;;17.88;7.95;;;;;;;;;;21163184;28;20174;-56
2022/11/05 22:02:41;;;;;;;10.40;4.40;;;;;;;;;;21167896;28;20044;-58
2022/11/05 22:12:43;;;;;;;8.35;4.55;;;;;;;;;;21178799;28;20063;-58
2022/11/05 22:22:46;;;;;;;7.30;3.80;;;;;;;;;;21178174;28;20055;-56
2022/11/05 22:32:48;;;;;;;6.55;3.88;;;;;;;;;;21177434;28;20048;-60
2022/11/05 22:42:51;;;;;;;7.57;3.75;;;;;;;;;;21178868;28;20043;-59
2022/11/05 22:52:53;;;;;;;9.68;4.60;;;;;;;;;;21176721;28;20064;-59
2022/11/05 23:02:55;;;;;;;7.03;3.08;;;;;;;;;;21176544;28;20048;-56
2022/11/05 23:12:57;;;;;;;7.25;3.33;;;;;;;;;;21174426;28;20055;-58
2022/11/05 23:33:20;;;;;;;10.73;4.63;;;;;;;;;;21174045;28;20055;-57
2022/11/05 23:53:47;;;;;;;10.57;6.25;;;;;;;;;;20912404;28;20052;-59
